Breedsville, MI (49027)

10:30 AM EDT on March 24, 2017 (GMT -0400)
Bangor | | Change Station

Elev 300 ft 42.29 °N, 86.06 °W | Updated 58 seconds ago

Partly Cloudy
Partly Cloudy
64.0 °F
Feels Like 64.0 °F
N
4.2
Wind Variable Wind from South

Today
High -- | Low -- °F
--% Chance of Precip.
Yesterday
High -- | Low -- °F
Precip. -- in
Pressure 29.92 in
Visibility 10.0 miles
Clouds Clear
Dew Point 50 °F
Humidity 61%
Rainfall 0.00 in
Snow Depth Not available.
7:40 AM 8:01 PM
Waning Crescent, 15% visible
METAR KLWA 241417Z AUTO 21011G19KT 10SM CLR 16/09 A2992 RMK AO2 T01580086
Pressure 29.92 in
Visibility 10.0 miles
Clouds Clear
Dew Point 50 °F
Humidity 61%
Rainfall 0.00 in
Snow Depth Not available.
7:40 AM 8:01 PM
Waning Crescent, 15% visible
METAR KLWA 241417Z AUTO 21011G19KT 10SM CLR 16/09 A2992 RMK AO2 T01580086

Get Severe Weather Alerts

Thanks for signing up!

Be on the lookout for a verification email in your inbox.

You'll start receiving the daily forecast at 8 AM.

×

10-Day Weather Forecast

Almanac

Astronomy

Mar. 24, 2017 Rise Set
Actual Time
Civil Twilight
Nautical Twilight
Astronomical Twilight
Moon
Length of Visible Light
Length of Day
Tomorrow will be .
, % of the Moon is Illuminated

Today's Extremes

State Highs State Lows

Community

WunderPhotos

Upload Photos

1,962,540 photos uploaded!

WunderBlog® & News

Nearby

Air Quality

  Air Quality AQ Index Pollutant
Not available.

Snow Depth

Station Depth Elevation

Earthquake Activity

City Distance Mag. Time & Date
Minimum magnitude displayed is 2.5.

Earthquake Activity

City Distance Mag. Time & Date
Minimum magnitude displayed is 2.5.

Coastal Water Temperatures

Place Temperature

Stations

Nearby Weather Stations

Station Location Temp. Windchill Dew Point Humidity Wind Precip. Elev Updated Type
                   

Watches & Warnings

There are currently no watches in effect.